createdAt,value
2019-01-13T00:00:52.152Z,0.30
2019-01-13T00:03:19.364Z,0.30
2019-01-13T00:05:46.589Z,0.40
2019-01-13T00:08:13.806Z,0.40
2019-01-13T00:10:41.023Z,0.50
2019-01-13T00:13:08.238Z,0.45
2019-01-13T00:15:35.455Z,0.80
2019-01-13T00:18:02.713Z,0.50
2019-01-13T00:20:29.969Z,0.50
2019-01-13T00:22:57.182Z,0.40
2019-01-13T00:25:24.386Z,0.37
2019-01-13T00:27:51.606Z,0.53
2019-01-13T00:30:19.738Z,0.35
2019-01-13T00:32:47.077Z,0.57
2019-01-13T00:35:14.295Z,0.50
2019-01-13T00:37:41.506Z,0.50
2019-01-13T00:40:10.399Z,0.40
2019-01-13T00:42:37.619Z,0.37
2019-01-13T00:45:05.887Z,0.42
2019-01-13T00:47:33.108Z,0.53
2019-01-13T00:50:00.316Z,0.30
2019-01-13T00:52:27.553Z,0.50
2019-01-13T00:54:54.743Z,0.50
2019-01-13T00:57:21.963Z,0.50
2019-01-13T00:59:49.171Z,0.40
2019-01-13T01:02:16.388Z,0.40
2019-01-13T01:04:43.604Z,0.40
2019-01-13T01:07:10.811Z,0.42
2019-01-13T01:09:38.022Z,0.40
2019-01-13T01:12:05.234Z,0.40
2019-01-13T01:14:32.480Z,0.50
2019-01-13T01:16:59.686Z,0.68
2019-01-13T01:19:26.907Z,0.50
2019-01-13T01:21:54.132Z,0.50
2019-01-13T01:24:21.344Z,0.30
2019-01-13T01:26:48.567Z,0.40
2019-01-13T01:29:15.803Z,0.50
2019-01-13T01:31:43.015Z,0.40
2019-01-13T01:34:10.239Z,0.50
2019-01-13T01:36:37.446Z,0.53
2019-01-13T01:39:06.503Z,0.40
2019-01-13T01:41:33.705Z,0.45
2019-01-13T01:44:00.926Z,0.60
2019-01-13T01:46:28.134Z,0.85
2019-01-13T01:48:55.346Z,0.93
2019-01-13T01:51:22.558Z,1.02
2019-01-13T01:53:49.778Z,0.98
2019-01-13T01:56:16.996Z,1.05
2019-01-13T01:58:44.217Z,1.20
2019-01-13T02:01:11.426Z,1.90
2019-01-13T02:03:38.683Z,2.55
2019-01-13T02:06:05.937Z,2.40
2019-01-13T02:08:33.154Z,2.37
2019-01-13T02:11:01.179Z,3.58
2019-01-13T02:13:28.402Z,3.22
2019-01-13T02:15:55.615Z,4.65
2019-01-13T02:18:22.831Z,3.67
2019-01-13T02:20:50.119Z,3.58
2019-01-13T02:23:17.338Z,3.55
2019-01-13T02:25:44.543Z,3.20
2019-01-13T02:28:11.753Z,3.85
2019-01-13T02:30:38.971Z,3.67
2019-01-13T02:33:06.184Z,4.12
2019-01-13T02:35:33.410Z,3.05
2019-01-13T02:38:00.629Z,3.67
2019-01-13T02:40:27.838Z,3.42
2019-01-13T02:42:55.053Z,3.62
2019-01-13T02:45:23.544Z,3.35
2019-01-13T02:47:50.758Z,3.25
2019-01-13T02:50:17.985Z,3.12
2019-01-13T02:52:45.193Z,3.83
2019-01-13T02:55:12.474Z,3.90
2019-01-13T02:57:39.855Z,3.50
2019-01-13T03:00:09.010Z,3.80
2019-01-13T03:02:36.230Z,3.87
2019-01-13T03:05:04.614Z,3.17
2019-01-13T03:07:31.830Z,4.22
2019-01-13T03:09:59.049Z,3.50
2019-01-13T03:12:26.262Z,3.87
2019-01-13T03:14:53.479Z,3.05
2019-01-13T03:17:20.690Z,3.08
2019-01-13T03:19:47.955Z,3.05
2019-01-13T03:22:15.159Z,4.10
2019-01-13T03:24:42.382Z,3.00
2019-01-13T03:27:09.612Z,3.42
2019-01-13T03:29:36.816Z,3.37
2019-01-13T03:32:04.028Z,2.85
2019-01-13T03:34:31.242Z,3.17
2019-01-13T03:36:58.477Z,4.67
2019-01-13T03:39:25.679Z,3.08
2019-01-13T03:41:52.902Z,3.05
2019-01-13T03:44:20.110Z,2.72
2019-01-13T03:46:47.331Z,3.12
2019-01-13T03:49:14.552Z,3.33
2019-01-13T03:51:41.760Z,2.75
2019-01-13T03:54:08.975Z,3.08
2019-01-13T03:56:36.187Z,2.95
2019-01-13T03:59:03.398Z,2.80
2019-01-13T04:01:30.626Z,2.20
2019-01-13T04:03:57.843Z,2.70
2019-01-13T04:06:25.058Z,3.40
2019-01-13T04:08:52.268Z,3.10
2019-01-13T04:11:19.486Z,2.75
2019-01-13T04:13:46.703Z,2.67
2019-01-13T04:16:13.917Z,3.52
2019-01-13T04:18:41.129Z,2.80
2019-01-13T04:21:08.358Z,3.30
2019-01-13T04:23:35.577Z,3.10
2019-01-13T04:26:02.788Z,3.05
2019-01-13T04:28:30.004Z,3.33
2019-01-13T04:30:57.218Z,3.85
2019-01-13T04:33:24.422Z,3.25
2019-01-13T04:35:51.626Z,3.92
2019-01-13T04:38:18.851Z,2.30
2019-01-13T04:40:46.058Z,3.40
2019-01-13T04:43:13.282Z,2.77
2019-01-13T04:45:40.491Z,2.98
2019-01-13T04:48:07.706Z,2.35
2019-01-13T04:50:34.918Z,3.12
2019-01-13T04:53:02.142Z,3.08
2019-01-13T04:55:29.351Z,2.42
2019-01-13T04:57:56.575Z,2.40
2019-01-13T05:00:23.868Z,2.55
2019-01-13T05:02:51.143Z,2.22
2019-01-13T05:05:18.358Z,1.60
2019-01-13T05:07:45.590Z,2.20
2019-01-13T05:10:16.627Z,2.00
2019-01-13T05:12:43.919Z,1.62
2019-01-13T05:15:11.194Z,1.55
2019-01-13T05:17:38.411Z,2.27
2019-01-13T05:20:07.162Z,2.00
2019-01-13T05:22:34.395Z,1.40
2019-01-13T05:25:01.612Z,1.60
2019-01-13T05:27:28.830Z,1.50
2019-01-13T05:29:56.041Z,1.82
2019-01-13T05:32:23.258Z,1.52
2019-01-13T05:34:50.471Z,1.62
2019-01-13T05:37:17.687Z,1.60
2019-01-13T05:39:44.891Z,1.65
2019-01-13T05:42:12.105Z,2.30
2019-01-13T05:44:39.318Z,1.60
2019-01-13T05:47:06.536Z,1.90
2019-01-13T05:49:33.750Z,2.00
2019-01-13T05:52:00.962Z,1.15
2019-01-13T05:54:28.170Z,1.75
2019-01-13T05:56:55.389Z,1.75
2019-01-13T05:59:22.597Z,2.60
2019-01-13T06:01:49.815Z,1.60
2019-01-13T06:04:17.022Z,3.10
2019-01-13T06:06:44.242Z,2.87
2019-01-13T06:09:11.468Z,2.60
2019-01-13T06:11:38.677Z,3.40
2019-01-13T06:14:05.894Z,3.20
2019-01-13T06:16:33.106Z,3.30
2019-01-13T06:19:00.330Z,3.00
2019-01-13T06:21:27.534Z,3.15
2019-01-13T06:23:54.750Z,2.60
2019-01-13T06:26:21.970Z,2.80
2019-01-13T06:28:49.186Z,3.12
2019-01-13T06:31:16.386Z,4.53
2019-01-13T06:33:43.603Z,3.77
2019-01-13T06:36:10.814Z,3.25
2019-01-13T06:38:38.035Z,3.60
2019-01-13T06:41:05.246Z,3.55
2019-01-13T06:43:32.506Z,3.20
2019-01-13T06:45:59.719Z,3.52
2019-01-13T06:48:26.930Z,3.25
2019-01-13T06:50:54.139Z,3.50
2019-01-13T06:53:21.362Z,3.72
2019-01-13T06:55:48.570Z,3.05
2019-01-13T06:58:15.795Z,3.37
2019-01-13T07:00:43.004Z,2.83
2019-01-13T07:03:10.218Z,2.50
2019-01-13T07:05:37.435Z,2.80
2019-01-13T07:08:04.678Z,2.98
2019-01-13T07:10:31.862Z,2.05
2019-01-13T07:12:59.078Z,1.72
2019-01-13T07:15:26.285Z,1.92
2019-01-13T07:17:53.523Z,2.70
2019-01-13T07:20:20.911Z,2.52
2019-01-13T07:22:48.124Z,2.02
2019-01-13T07:25:15.343Z,2.25
2019-01-13T07:27:42.550Z,1.62
2019-01-13T07:30:13.966Z,1.77
2019-01-13T07:32:41.182Z,1.98
2019-01-13T07:35:08.401Z,2.37
2019-01-13T07:37:35.619Z,3.02
2019-01-13T07:40:03.713Z,1.62
2019-01-13T07:42:30.926Z,1.85
2019-01-13T07:44:58.146Z,2.25
2019-01-13T07:47:25.359Z,1.65
2019-01-13T07:49:52.582Z,2.92
2019-01-13T07:52:19.790Z,1.52
2019-01-13T07:54:47.010Z,1.32
2019-01-13T07:57:14.226Z,0.80
2019-01-13T07:59:41.438Z,0.95
2019-01-13T08:02:08.719Z,1.05
2019-01-13T08:04:35.934Z,0.75
2019-01-13T08:07:03.150Z,0.60
2019-01-13T08:09:30.367Z,0.60
2019-01-13T08:11:57.590Z,0.70
2019-01-13T08:14:24.823Z,0.65
2019-01-13T08:16:52.026Z,0.70
2019-01-13T08:19:19.247Z,0.80
2019-01-13T08:21:46.454Z,0.90
2019-01-13T08:24:13.678Z,0.62
2019-01-13T08:26:40.895Z,0.65
2019-01-13T08:29:08.119Z,0.50
2019-01-13T08:31:35.337Z,0.40
2019-01-13T08:34:02.913Z,0.57
2019-01-13T08:36:30.207Z,0.60
2019-01-13T08:38:57.401Z,0.30
2019-01-13T08:41:24.615Z,0.70
2019-01-13T08:43:51.822Z,0.57
2019-01-13T08:46:19.035Z,0.57
2019-01-13T08:48:46.258Z,0.45
2019-01-13T08:51:13.483Z,0.42
2019-01-13T08:53:40.687Z,0.90
2019-01-13T08:56:07.906Z,0.78
2019-01-13T08:58:35.186Z,0.40
2019-01-13T09:01:02.411Z,0.60
2019-01-13T09:03:29.619Z,0.53
2019-01-13T09:05:56.847Z,0.45
2019-01-13T09:08:24.048Z,0.53
2019-01-13T09:10:51.270Z,0.55
2019-01-13T09:13:18.482Z,0.60
2019-01-13T09:15:45.702Z,0.45
2019-01-13T09:18:12.998Z,0.55
2019-01-13T09:20:40.217Z,0.50
2019-01-13T09:23:07.423Z,0.40
2019-01-13T09:25:34.669Z,0.75
2019-01-13T09:28:03.504Z,0.47
2019-01-13T09:30:30.923Z,0.60
2019-01-13T09:32:58.138Z,0.50
2019-01-13T09:35:25.529Z,0.45
2019-01-13T09:37:53.005Z,0.50
2019-01-13T09:40:24.185Z,0.50
2019-01-13T09:42:51.495Z,0.53
2019-01-13T09:45:18.712Z,0.40
2019-01-13T09:47:45.915Z,0.57
2019-01-13T09:50:14.678Z,0.50
2019-01-13T09:52:41.890Z,0.55
2019-01-13T09:55:10.774Z,0.70
2019-01-13T09:57:38.016Z,0.68
2019-01-13T10:00:06.753Z,0.50
2019-01-13T10:02:33.983Z,0.55
2019-01-13T10:05:01.194Z,0.78
2019-01-13T10:07:28.481Z,1.12
2019-01-13T10:09:55.694Z,1.62
2019-01-13T10:12:22.922Z,0.42
2019-01-13T10:14:50.128Z,0.50
2019-01-13T10:17:17.349Z,0.50
2019-01-13T10:19:44.549Z,0.50
2019-01-13T10:22:11.769Z,0.50
2019-01-13T10:24:38.983Z,0.50
2019-01-13T10:27:06.202Z,0.70
2019-01-13T10:29:33.410Z,0.57
2019-01-13T10:32:00.622Z,0.50
2019-01-13T10:34:27.831Z,0.40
2019-01-13T10:36:55.055Z,0.60
2019-01-13T10:39:22.266Z,0.55
2019-01-13T10:41:49.484Z,0.60
2019-01-13T10:44:16.703Z,0.55
2019-01-13T10:46:43.915Z,0.50
2019-01-13T10:49:11.127Z,0.57
2019-01-13T10:51:38.338Z,0.57
2019-01-13T10:54:09.243Z,0.60
2019-01-13T10:56:34.492Z,0.55
2019-01-13T10:59:01.779Z,0.50
2019-01-13T11:01:29.062Z,1.32
2019-01-13T11:03:56.270Z,0.50
2019-01-13T11:06:23.491Z,0.50
2019-01-13T11:08:50.700Z,1.17
2019-01-13T11:11:17.965Z,0.65
2019-01-13T11:13:45.206Z,0.60
2019-01-13T11:16:12.422Z,0.50
2019-01-13T11:18:39.648Z,0.53
2019-01-13T11:21:06.851Z,0.70
2019-01-13T11:23:34.065Z,0.60
2019-01-13T11:26:01.269Z,0.40
2019-01-13T11:28:28.491Z,0.50
2019-01-13T11:30:55.694Z,0.60
2019-01-13T11:33:22.911Z,0.53
2019-01-13T11:35:50.203Z,0.40
2019-01-13T11:38:17.417Z,0.40
2019-01-13T11:40:44.659Z,0.50
2019-01-13T11:43:11.879Z,0.70
2019-01-13T11:45:39.091Z,0.40
2019-01-13T11:48:06.306Z,0.55
2019-01-13T11:50:33.526Z,0.55
2019-01-13T11:53:00.747Z,1.00
2019-01-13T11:55:27.959Z,0.45
2019-01-13T11:57:55.183Z,0.53
2019-01-13T12:00:23.939Z,0.60
2019-01-13T12:02:51.250Z,0.50
2019-01-13T12:05:18.463Z,0.78
2019-01-13T12:07:46.247Z,0.82
2019-01-13T12:10:15.032Z,0.75
2019-01-13T12:12:42.244Z,0.65
2019-01-13T12:15:13.606Z,0.80
2019-01-13T12:17:40.827Z,0.60
2019-01-13T12:20:09.571Z,0.65
2019-01-13T12:22:36.826Z,0.68
2019-01-13T12:25:05.407Z,0.85
2019-01-13T12:27:32.632Z,0.50
2019-01-13T12:29:59.850Z,0.88
2019-01-13T12:32:27.062Z,0.80
2019-01-13T12:34:54.266Z,0.47
2019-01-13T12:37:21.490Z,0.70
2019-01-13T12:39:48.715Z,0.55
2019-01-13T12:42:15.979Z,0.57
2019-01-13T12:44:43.195Z,0.60
2019-01-13T12:47:10.415Z,0.57
2019-01-13T12:49:37.638Z,0.50
2019-01-13T12:52:04.846Z,0.70
2019-01-13T12:54:32.068Z,0.90
2019-01-13T12:56:59.273Z,0.60
2019-01-13T12:59:26.497Z,0.78
2019-01-13T13:01:53.703Z,0.70
2019-01-13T13:04:20.920Z,0.85
2019-01-13T13:06:48.130Z,0.65
2019-01-13T13:09:15.351Z,0.57
2019-01-13T13:11:42.564Z,0.50
2019-01-13T13:14:09.781Z,0.30
2019-01-13T13:16:36.990Z,0.40
2019-01-13T13:19:04.206Z,1.62
2019-01-13T13:21:31.414Z,0.40
2019-01-13T13:23:58.636Z,0.30
2019-01-13T13:26:25.850Z,0.40
2019-01-13T13:28:53.073Z,0.65
2019-01-13T13:31:20.324Z,0.30
2019-01-13T13:33:47.530Z,0.30
2019-01-13T13:36:14.743Z,0.35
2019-01-13T13:38:41.963Z,0.50
2019-01-13T13:41:09.178Z,0.30
2019-01-13T13:43:35.866Z,0.40
2019-01-13T13:46:04.452Z,0.35
2019-01-13T13:48:31.834Z,0.30
2019-01-13T13:50:59.050Z,0.40
2019-01-13T13:53:26.268Z,0.40
2019-01-13T13:55:53.487Z,0.40
2019-01-13T13:58:20.707Z,0.30
2019-01-13T14:00:47.935Z,0.30
2019-01-13T14:03:15.171Z,0.40
2019-01-13T14:05:42.379Z,0.40
2019-01-13T14:08:09.595Z,0.40
2019-01-13T14:10:37.286Z,0.62
2019-01-13T14:13:05.082Z,0.42
2019-01-13T14:15:34.101Z,0.30
2019-01-13T14:18:01.293Z,0.30
2019-01-13T14:20:28.523Z,0.60
2019-01-13T14:22:55.734Z,0.40
2019-01-13T14:25:22.957Z,0.53
2019-01-13T14:27:50.209Z,0.30
2019-01-13T14:30:18.952Z,0.40
2019-01-13T14:32:46.170Z,0.40
2019-01-13T14:35:13.386Z,0.40
2019-01-13T14:37:40.600Z,0.37
2019-01-13T14:40:09.369Z,0.40
2019-01-13T14:42:36.601Z,0.50
2019-01-13T14:45:05.436Z,0.40
2019-01-13T14:47:32.650Z,0.40
2019-01-13T14:49:59.879Z,0.55
2019-01-13T14:52:27.096Z,0.40
2019-01-13T14:54:54.318Z,0.90
2019-01-13T14:57:21.536Z,0.50
2019-01-13T14:59:48.754Z,0.40
2019-01-13T15:02:15.970Z,0.50
2019-01-13T15:04:43.190Z,0.55
2019-01-13T15:07:10.411Z,0.50
2019-01-13T15:09:37.646Z,1.05
2019-01-13T15:12:04.846Z,1.00
2019-01-13T15:14:32.069Z,0.55
2019-01-13T15:16:59.273Z,0.57
2019-01-13T15:19:26.494Z,0.65
2019-01-13T15:21:53.713Z,1.27
2019-01-13T15:24:20.944Z,0.80
2019-01-13T15:26:48.159Z,1.07
2019-01-13T15:29:15.379Z,1.40
2019-01-13T15:31:42.588Z,0.70
2019-01-13T15:34:09.798Z,0.65
2019-01-13T15:36:37.022Z,0.75
2019-01-13T15:39:06.004Z,0.98
2019-01-13T15:41:33.218Z,0.40
2019-01-13T15:44:00.443Z,0.53
2019-01-13T15:46:27.684Z,0.62
2019-01-13T15:48:54.916Z,0.45
2019-01-13T15:51:22.136Z,0.30
2019-01-13T15:53:49.371Z,0.70
2019-01-13T15:56:16.592Z,1.02
2019-01-13T15:58:43.811Z,0.68
2019-01-13T16:01:11.032Z,1.07
2019-01-13T16:03:38.252Z,1.10
2019-01-13T16:06:05.467Z,1.95
2019-01-13T16:08:32.682Z,1.25
2019-01-13T16:10:59.908Z,0.60
2019-01-13T16:13:27.114Z,0.60
2019-01-13T16:15:54.338Z,0.53
2019-01-13T16:18:21.547Z,0.45
2019-01-13T16:20:48.770Z,0.50
2019-01-13T16:23:16.003Z,0.72
2019-01-13T16:25:43.227Z,0.50
2019-01-13T16:28:10.461Z,0.50
2019-01-13T16:30:37.669Z,0.70
2019-01-13T16:33:04.953Z,0.60
2019-01-13T16:35:32.172Z,0.40
2019-01-13T16:37:59.383Z,0.60
2019-01-13T16:40:26.606Z,1.00
2019-01-13T16:42:53.817Z,0.50
2019-01-13T16:45:21.106Z,0.55
2019-01-13T16:47:48.326Z,0.60
2019-01-13T16:50:16.517Z,0.50
2019-01-13T16:52:44.603Z,0.75
2019-01-13T16:55:11.891Z,0.50
2019-01-13T16:57:39.107Z,0.50
2019-01-13T17:00:09.548Z,0.50
2019-01-13T17:02:36.758Z,0.40
2019-01-13T17:05:05.050Z,0.40
2019-01-13T17:07:32.286Z,0.40
2019-01-13T17:09:59.515Z,0.50
2019-01-13T17:12:26.738Z,0.40
2019-01-13T17:14:53.954Z,0.50
2019-01-13T17:17:21.179Z,0.72
2019-01-13T17:19:48.405Z,0.37
2019-01-13T17:22:15.621Z,0.30
2019-01-13T17:24:42.844Z,0.72
2019-01-13T17:27:10.070Z,0.40
2019-01-13T17:29:37.330Z,0.45
2019-01-13T17:32:04.584Z,0.30
2019-01-13T17:34:35.807Z,0.30
2019-01-13T17:37:00.750Z,0.40
2019-01-13T17:39:27.977Z,0.40
2019-01-13T17:41:55.207Z,0.50
2019-01-13T17:44:22.422Z,0.53
2019-01-13T17:46:49.648Z,0.30
2019-01-13T17:49:16.867Z,0.50
2019-01-13T17:51:44.086Z,0.50
2019-01-13T17:54:11.370Z,0.40
2019-01-13T17:56:38.592Z,0.40
2019-01-13T17:59:05.810Z,0.40
2019-01-13T18:01:33.058Z,0.30
2019-01-13T18:04:01.146Z,0.40
2019-01-13T18:06:28.374Z,0.50
2019-01-13T18:08:55.583Z,0.40
2019-01-13T18:11:22.806Z,0.40
2019-01-13T18:13:50.026Z,0.70
2019-01-13T18:16:17.242Z,0.80
2019-01-13T18:18:44.463Z,0.88
2019-01-13T18:21:11.967Z,0.60
2019-01-13T18:23:39.179Z,0.42
2019-01-13T18:26:06.395Z,0.40
2019-01-13T18:28:33.622Z,0.40
2019-01-13T18:31:00.910Z,0.80
2019-01-13T18:33:28.131Z,0.60
2019-01-13T18:35:55.347Z,0.50
2019-01-13T18:38:22.574Z,0.50
2019-01-13T18:40:49.814Z,0.50
2019-01-13T18:43:17.027Z,0.40
2019-01-13T18:45:44.234Z,0.40
2019-01-13T18:48:11.469Z,0.60
2019-01-13T18:50:38.720Z,0.60
2019-01-13T18:53:10.475Z,0.40
2019-01-13T18:55:37.699Z,0.53
2019-01-13T18:58:05.198Z,0.62
2019-01-13T19:00:32.416Z,0.60
2019-01-13T19:02:59.640Z,0.40
2019-01-13T19:05:27.631Z,0.45
2019-01-13T19:07:54.851Z,0.30
2019-01-13T19:10:23.899Z,0.40
2019-01-13T19:12:52.655Z,0.40
2019-01-13T19:15:19.873Z,0.53
2019-01-13T19:17:47.104Z,0.40
2019-01-13T19:20:14.915Z,0.50
2019-01-13T19:22:42.406Z,0.40
2019-01-13T19:25:11.198Z,0.53
2019-01-13T19:27:38.422Z,0.50
2019-01-13T19:30:07.199Z,0.60
2019-01-13T19:32:34.431Z,0.50
2019-01-13T19:35:04.747Z,0.50
2019-01-13T19:37:30.666Z,0.55
2019-01-13T19:39:57.882Z,0.50
2019-01-13T19:42:25.106Z,0.40
2019-01-13T19:44:52.322Z,0.50
2019-01-13T19:47:19.543Z,0.60
2019-01-13T19:49:46.761Z,0.40
2019-01-13T19:52:13.992Z,0.40
2019-01-13T19:54:41.207Z,0.50
2019-01-13T19:57:08.418Z,0.57
2019-01-13T19:59:35.658Z,0.40
2019-01-13T20:02:02.861Z,0.60
2019-01-13T20:04:30.084Z,0.70
2019-01-13T20:06:57.294Z,0.72
2019-01-13T20:09:24.522Z,0.40
2019-01-13T20:11:51.754Z,0.88
2019-01-13T20:14:18.982Z,0.50
2019-01-13T20:16:46.219Z,0.60
2019-01-13T20:19:13.438Z,0.75
2019-01-13T20:21:40.666Z,0.80
2019-01-13T20:24:07.902Z,0.60
2019-01-13T20:26:35.127Z,0.80
2019-01-13T20:29:02.366Z,0.80
2019-01-13T20:31:29.583Z,0.70
2019-01-13T20:33:56.811Z,0.53
2019-01-13T20:36:24.029Z,1.25
2019-01-13T20:38:51.256Z,0.75
2019-01-13T20:41:18.475Z,0.88
2019-01-13T20:43:45.703Z,0.90
2019-01-13T20:46:12.917Z,1.02
2019-01-13T20:48:40.138Z,0.80
2019-01-13T20:51:07.365Z,0.60
2019-01-13T20:53:34.583Z,0.60
2019-01-13T20:56:01.803Z,0.78
2019-01-13T20:58:29.034Z,0.60
2019-01-13T21:00:56.257Z,0.50
2019-01-13T21:03:23.477Z,1.10
2019-01-13T21:05:50.697Z,0.70
2019-01-13T21:08:17.914Z,0.40
2019-01-13T21:10:45.140Z,0.50
2019-01-13T21:13:12.358Z,0.60
2019-01-13T21:15:39.579Z,0.80
2019-01-13T21:18:06.875Z,1.52
2019-01-13T21:20:34.159Z,0.88
2019-01-13T21:23:01.374Z,0.72
2019-01-13T21:25:28.598Z,0.80
2019-01-13T21:27:57.583Z,0.65
2019-01-13T21:30:26.368Z,1.20
2019-01-13T21:32:53.578Z,1.07
2019-01-13T21:35:20.871Z,1.55
2019-01-13T21:37:48.083Z,1.65
2019-01-13T21:40:15.667Z,1.60
2019-01-13T21:42:42.885Z,2.08
2019-01-13T21:45:11.654Z,1.80
2019-01-13T21:47:38.862Z,1.90
2019-01-13T21:50:07.624Z,1.25
2019-01-13T21:52:34.835Z,2.05
2019-01-13T21:55:02.063Z,2.25
2019-01-13T21:57:29.276Z,1.95
2019-01-13T21:59:56.503Z,1.37
2019-01-13T22:02:23.942Z,1.67
2019-01-13T22:04:51.171Z,1.75
2019-01-13T22:07:18.382Z,2.08
2019-01-13T22:09:45.594Z,1.52
2019-01-13T22:12:12.815Z,1.92
2019-01-13T22:14:40.038Z,2.12
2019-01-13T22:17:07.253Z,2.10
2019-01-13T22:19:34.466Z,1.37
2019-01-13T22:22:01.702Z,1.60
2019-01-13T22:24:28.910Z,1.57
2019-01-13T22:26:56.130Z,2.08
2019-01-13T22:29:23.338Z,1.20
2019-01-13T22:31:50.558Z,1.80
2019-01-13T22:34:17.770Z,2.10
2019-01-13T22:36:44.986Z,1.30
2019-01-13T22:39:12.203Z,1.85
2019-01-13T22:41:39.430Z,1.62
2019-01-13T22:44:06.638Z,1.12
2019-01-13T22:46:33.863Z,0.90
2019-01-13T22:49:01.141Z,0.90
2019-01-13T22:51:28.370Z,1.27
2019-01-13T22:53:55.586Z,1.55
2019-01-13T22:56:22.807Z,1.60
2019-01-13T22:58:50.015Z,1.20
2019-01-13T23:01:20.418Z,2.05
2019-01-13T23:03:47.635Z,1.20
2019-01-13T23:06:14.856Z,1.80
2019-01-13T23:08:42.063Z,1.72
2019-01-13T23:11:09.307Z,1.75
2019-01-13T23:13:36.519Z,1.65
2019-01-13T23:16:03.817Z,1.55
2019-01-13T23:18:31.022Z,1.75
2019-01-13T23:20:58.246Z,1.35
2019-01-13T23:23:25.457Z,1.65
2019-01-13T23:25:52.669Z,1.55
2019-01-13T23:28:19.882Z,1.77
2019-01-13T23:30:47.115Z,2.55
2019-01-13T23:33:14.331Z,1.32
2019-01-13T23:35:41.637Z,2.00
2019-01-13T23:38:08.855Z,0.60
2019-01-13T23:40:36.081Z,0.95
2019-01-13T23:43:03.315Z,0.82
2019-01-13T23:45:30.510Z,0.90
2019-01-13T23:47:57.740Z,0.60
2019-01-13T23:50:24.947Z,0.60
2019-01-13T23:52:52.159Z,0.37
2019-01-13T23:55:19.394Z,0.42
2019-01-13T23:57:46.613Z,0.40
